Currently 44°F in Simi Valley, California, USA
44°F
56°F / 44°F
calm
0.00"
Thursday, February 2, 2023 6:20 AM PST

Simi Valley, California Weather Summary
Last 36 Hours

Temperature Winds Hourly Humidity Dewpoint
Time Report Norm Report Norm Max Gusts Precip. Rpt. Norm Rpt. Norm Pressure
1,3Thu 06:20 AM  44.3°F  51°F  calm  4 mph  none  0.00"  49%  59%  25°F  36°F  30.22"
Thu 06:00 AM  44.9°F  51°F  calm  4 mph  none  0.00"  48%  59%  25°F  36°F  30.21"
Thu 05:00 AM  47.5°F  51°F  calm  5 mph  6 mph  0.00"  42%  59%  25°F  36°F  30.20"
Thu 04:00 AM  52.0°F  51°F  calm  4 mph  8 mph  0.00"  35%  58%  24°F  36°F  30.18"
Thu 03:00 AM  54.2°F  51°F  calm  4 mph  11 mph  0.00"  32%  58%  23°F  37°F  30.17"
Thu 02:00 AM  54.5°F  52°F  calm  4 mph  8 mph  0.00"  31%  57%  23°F  37°F  30.17"
Thu 01:00 AM  56.1°F  53°F  3 mph SE  4 mph  15 mph  0.00"  30%  57%  23°F  37°F  30.17"
2Thu 12:46 AM  56.5°F  53°F  1 mph E  4 mph  15 mph  ----  29%  56%  23°F  37°F  30.16"
Thu 12:00 AM  55.9°F  53°F  8 mph E  4 mph  17 mph  0.00"  30%  56%  23°F  37°F  30.16"
Wed 11:00 PM  55.8°F  54°F  6 mph E  4 mph  15 mph  0.00"  30%  56%  23°F  38°F  30.16"
Wed 10:00 PM  56.7°F  54°F  5 mph E  4 mph  18 mph  0.00"  29%  56%  23°F  38°F  30.15"
Wed 09:00 PM  55.4°F  55°F  calm  4 mph  12 mph  0.00"  30%  56%  23°F  39°F  30.14"
Wed 08:00 PM  57.2°F  56°F  3 mph E  4 mph  10 mph  0.00"  28%  55%  23°F  39°F  30.12"
Wed 07:00 PM  57.6°F  57°F  3 mph SE  4 mph  13 mph  0.00"  29%  53%  24°F  40°F  30.11"
Wed 06:00 PM  60.0°F  60°F  6 mph E  4 mph  18 mph  0.00"  26%  51%  24°F  41°F  30.09"
Wed 05:00 PM  62.7°F  63°F  6 mph E  5 mph  22 mph  0.00"  24%  47%  24°F  41°F  30.08"
Wed 04:00 PM  65.1°F  65°F  12 mph NE  6 mph  24 mph  0.00"  22%  43%  24°F  41°F  30.07"
Wed 03:00 PM  66.1°F  66°F  7 mph NE  6 mph  20 mph  0.00"  21%  40%  24°F  41°F  30.07"
Wed 02:00 PM  65.7°F  67°F  7 mph E  6 mph  26 mph  0.00"  21%  39%  23°F  40°F  30.05"
Wed 01:00 PM  64.8°F  67°F  11 mph NE  6 mph  23 mph  0.00"  22%  39%  24°F  40°F  30.07"
Wed 12:00 PM  63.2°F  65°F  2 mph SE  5 mph  23 mph  0.00"  23%  41%  24°F  40°F  30.11"
Wed 11:00 AM  60.7°F  63°F  8 mph NE  5 mph  19 mph  0.00"  23%  44%  22°F  40°F  30.14"
Wed 10:00 AM  57.6°F  61°F  6 mph E  6 mph  18 mph  0.00"  26%  49%  22°F  40°F  30.16"
Wed 09:00 AM  52.9°F  56°F  9 mph NE  5 mph  22 mph  0.00"  28%  55%  20°F  40°F  30.14"
Wed 08:00 AM  49.7°F  52°F  8 mph E  5 mph  24 mph  0.00"  29%  58%  17°F  37°F  30.13"
Wed 07:00 AM  47.6°F  51°F  3 mph E  4 mph  18 mph  0.00"  30%  59%  16°F  36°F  30.13"
Wed 06:00 AM  49.3°F  51°F  7 mph NE  4 mph  17 mph  0.00"  28%  59%  16°F  36°F  30.11"
Wed 05:00 AM  48.9°F  51°F  9 mph E  5 mph  17 mph  0.00"  28%  58%  16°F  36°F  30.09"
Wed 04:00 AM  47.6°F  51°F  5 mph E  5 mph  15 mph  0.00"  30%  58%  16°F  37°F  30.08"
Wed 03:00 AM  48.0°F  52°F  calm  4 mph  13 mph  0.00"  29%  58%  16°F  37°F  30.11"
Wed 02:00 AM  48.1°F  52°F  7 mph SE  4 mph  15 mph  0.00"  28%  57%  15°F  37°F  30.10"
Wed 01:00 AM  48.8°F  53°F  5 mph E  4 mph  18 mph  0.00"  27%  57%  15°F  37°F  30.10"
Wed 12:00 AM  49.3°F  53°F  6 mph NE  4 mph  24 mph  0.00"  26%  56%  15°F  37°F  30.10"
Tue 11:00 PM  49.5°F  54°F  8 mph E  4 mph  26 mph  0.00"  26%  56%  14°F  38°F  30.08"
Tue 10:00 PM  49.7°F  54°F  5 mph E  4 mph  15 mph  0.00"  27%  56%  16°F  38°F  30.09"
Tue 09:00 PM  49.6°F  55°F  2 mph E  4 mph  13 mph  0.00"  29%  55%  17°F  39°F  30.09"
Tue 08:00 PM  48.6°F  56°F  4 mph NE  4 mph  10 mph  0.00"  31%  54%  18°F  39°F  30.08"
Tue 07:00 PM  49.6°F  58°F  1 mph NE  4 mph  9 mph  0.00"  31%  53%  19°F  40°F  30.05"

  1. Current weather data. No green row appears if the current weather data is also the high or low for the current day.
  2. High temperature for the current day.
  3. Low temperature for the current day.

The Simi Valley, California weather pages are a service of WeatherCurrents.
Copyright ©2023  WeatherCurrents. All rights reserved. - Submit questions and comments - Privacy Policy

This page automatically refreshes every 10 minutes.